Time;durP1;ratioP1;P1;durP2;ratioP2;P2;SDS_P1;SDS_P2;PMS_P1;PMS_P2;Temp;Humidity;BMP_temperature;BMP_pressure;BME280_temperature;BME280_humidity;BME280_pressure;Samples;Min_cycle;Max_cycle;Signal;HPM_P1;HPM_P2
2020/12/09 00:05:03;;;;;;;52.53;28.55;;;0.30;99.90;;;;;;12441755;28;20053;-34
2020/12/09 00:11:06;;;;;;;49.57;26.37;;;0.20;99.90;;;;;;12444734;28;20476;-34
2020/12/09 00:17:07;;;;;;;49.00;25.85;;;0.10;99.90;;;;;;12434236;28;20046;-34
2020/12/09 00:23:09;;;;;;;56.55;28.67;;;0.00;99.90;;;;;;12443545;28;20458;-34
2020/12/09 00:29:11;;;;;;;55.97;28.83;;;0.10;99.90;;;;;;12429516;28;20057;-34
2020/12/09 00:35:13;;;;;;;56.25;28.27;;;0.10;99.90;;;;;;12420236;28;20072;-34
2020/12/09 00:41:16;;;;;;;50.88;27.25;;;0.10;99.90;;;;;;12463119;28;20064;-34
2020/12/09 00:47:17;;;;;;;107.97;32.63;;;0.30;99.90;;;;;;12448076;28;20096;-34
2020/12/09 00:53:19;;;;;;;84.85;30.17;;;0.30;99.90;;;;;;12460204;28;20390;-34
2020/12/09 00:59:20;;;;;;;143.15;28.83;;;0.30;99.90;;;;;;12433707;28;20054;-34
2020/12/09 01:05:21;;;;;;;108.88;27.50;;;0.40;99.90;;;;;;12436922;28;20073;-34
2020/12/09 01:11:22;;;;;;;196.70;30.17;;;0.40;99.90;;;;;;12444525;28;20085;-34
2020/12/09 01:17:24;;;;;;;175.65;27.20;;;0.30;99.90;;;;;;12451630;28;20076;-34
2020/12/09 01:23:35;;;;;;;154.25;27.02;;;0.30;99.90;;;;;;12450962;28;20090;-34
2020/12/09 01:29:37;;;;;;;227.25;29.00;;;0.30;99.90;;;;;;12444351;28;20053;-34
2020/12/09 01:35:39;;;;;;;144.45;26.45;;;0.40;99.90;;;;;;12455130;28;20049;-34
2020/12/09 01:41:40;;;;;;;109.22;25.52;;;0.40;99.90;;;;;;12430105;28;20052;-34
2020/12/09 01:47:43;;;;;;;215.00;29.05;;;0.50;99.90;;;;;;12460838;28;20077;-34
2020/12/09 01:53:45;;;;;;;159.20;30.27;;;0.50;99.90;;;;;;12434269;28;20080;-34
2020/12/09 01:59:46;;;;;;;188.07;27.88;;;0.60;99.90;;;;;;12442987;28;20504;-34
2020/12/09 02:05:48;;;;;;;103.13;25.52;;;0.60;99.90;;;;;;12427311;28;20289;-34
2020/12/09 02:11:50;;;;;;;107.28;26.75;;;0.70;99.90;;;;;;12439687;28;22884;-34
2020/12/09 02:17:52;;;;;;;117.07;25.23;;;0.70;99.90;;;;;;12452762;28;20053;-34
2020/12/09 02:23:54;;;;;;;98.05;27.85;;;0.80;99.90;;;;;;12445024;28;20048;-34
2020/12/09 02:29:55;;;;;;;107.97;27.00;;;0.80;99.90;;;;;;12457192;28;20081;-35
2020/12/09 02:35:58;;;;;;;117.05;27.17;;;0.80;99.90;;;;;;12450272;28;20481;-34
2020/12/09 02:41:59;;;;;;;103.65;25.40;;;0.80;99.90;;;;;;12444492;28;20087;-34
2020/12/09 02:48:00;;;;;;;73.05;23.67;;;0.90;99.90;;;;;;12468298;28;20480;-34
2020/12/09 02:54:02;;;;;;;85.75;24.13;;;0.90;99.90;;;;;;12460544;28;20068;-34
2020/12/09 03:00:06;;;;;;;103.07;26.42;;;0.90;99.90;;;;;;12456137;28;20093;-35
2020/12/09 03:06:08;;;;;;;143.70;27.92;;;1.00;99.90;;;;;;12462384;28;20084;-34
2020/12/09 03:12:09;;;;;;;94.57;25.58;;;1.00;99.90;;;;;;12450844;28;20064;-34
2020/12/09 03:18:10;;;;;;;136.05;26.08;;;1.00;99.90;;;;;;12424371;28;20046;-34
2020/12/09 03:24:12;;;;;;;119.50;28.00;;;1.00;99.90;;;;;;12456339;28;20538;-34
2020/12/09 03:30:13;;;;;;;93.93;26.30;;;1.00;99.90;;;;;;12449739;28;20500;-34
2020/12/09 03:36:14;;;;;;;106.15;26.20;;;1.00;99.90;;;;;;12449217;28;20049;-35
2020/12/09 03:42:16;;;;;;;191.43;29.60;;;1.00;99.90;;;;;;12445102;28;20096;-34
2020/12/09 03:48:17;;;;;;;112.30;26.73;;;1.20;99.90;;;;;;12449233;28;20444;-34
2020/12/09 03:54:18;;;;;;;105.82;27.40;;;1.00;99.90;;;;;;12448167;28;21802;-34
2020/12/09 04:00:19;;;;;;;87.05;25.70;;;1.00;99.90;;;;;;12462717;28;20053;-34
2020/12/09 04:06:21;;;;;;;203.02;31.98;;;1.00;99.90;;;;;;12440750;28;20054;-34
2020/12/09 04:12:23;;;;;;;146.30;32.35;;;1.00;99.90;;;;;;12429149;28;20083;-35
2020/12/09 04:18:25;;;;;;;76.75;26.58;;;1.00;99.90;;;;;;12441896;28;20049;-34
2020/12/09 04:24:26;;;;;;;82.47;28.10;;;1.20;99.90;;;;;;12450832;28;20497;-34
2020/12/09 04:30:27;;;;;;;63.08;25.52;;;1.10;99.90;;;;;;12437896;28;20057;-34
2020/12/09 04:36:29;;;;;;;78.18;26.88;;;1.10;99.90;;;;;;12416286;28;20057;-35
2020/12/09 04:42:30;;;;;;;86.30;31.08;;;1.10;99.90;;;;;;12450443;28;20089;-34
2020/12/09 04:48:56;;;;;;;121.13;30.77;;;1.10;99.90;;;;;;12409546;28;20486;-35
2020/12/09 04:55:08;;;;;;;206.50;32.00;;;1.10;99.90;;;;;;12433923;28;20052;-35
2020/12/09 05:01:15;;;;;;;161.63;32.92;;;1.10;99.90;;;;;;12440980;28;20490;-35
2020/12/09 05:07:17;;;;;;;112.22;32.88;;;1.20;99.90;;;;;;12431163;28;20085;-35
2020/12/09 05:13:26;;;;;;;111.97;33.13;;;1.10;99.90;;;;;;12427016;28;20076;-35
2020/12/09 05:19:27;;;;;;;96.75;34.03;;;1.20;99.90;;;;;;12449808;28;20092;-35
2020/12/09 05:25:30;;;;;;;87.90;33.63;;;1.20;99.90;;;;;;12430754;28;20057;-35
2020/12/09 05:31:32;;;;;;;112.70;33.35;;;1.20;99.90;;;;;;12435755;28;20469;-35
2020/12/09 05:37:33;;;;;;;92.35;32.97;;;1.20;99.90;;;;;;12432908;28;20045;-35
2020/12/09 05:43:34;;;;;;;80.80;32.47;;;1.20;99.90;;;;;;12412854;28;20080;-35
2020/12/09 05:49:41;;;;;;;89.00;32.35;;;1.20;99.90;;;;;;12438929;28;20049;-35
2020/12/09 05:55:43;;;;;;;76.47;31.48;;;1.20;99.90;;;;;;12427968;28;20084;-35
2020/12/09 06:01:44;;;;;;;84.90;31.38;;;1.30;99.90;;;;;;12438605;28;20069;-35
2020/12/09 06:07:45;;;;;;;88.43;31.83;;;1.30;99.90;;;;;;12432360;28;20140;-35
2020/12/09 06:13:47;;;;;;;76.60;31.63;;;1.30;99.90;;;;;;12439017;28;20446;-35
2020/12/09 06:19:50;;;;;;;63.05;26.25;;;1.20;99.90;;;;;;12438631;28;20528;-35
2020/12/09 06:25:51;;;;;;;65.28;29.27;;;1.30;99.90;;;;;;12445639;28;20202;-35
2020/12/09 06:32:04;;;;;;;79.55;31.10;;;1.30;99.90;;;;;;12440621;28;20472;-35
2020/12/09 06:38:08;;;;;;;75.65;30.20;;;1.20;99.90;;;;;;12430954;28;20124;-35
2020/12/09 06:44:12;;;;;;;69.30;29.67;;;1.20;99.90;;;;;;12435107;28;20231;-35
2020/12/09 06:50:28;;;;;;;67.72;29.00;;;1.20;99.90;;;;;;12446096;28;20065;-35
2020/12/09 06:56:30;;;;;;;72.15;29.45;;;1.20;99.90;;;;;;12444388;28;20516;-35
2020/12/09 07:02:32;;;;;;;77.32;30.17;;;1.20;99.90;;;;;;12431423;28;20084;-35
2020/12/09 07:08:44;;;;;;;68.45;29.77;;;1.20;99.90;;;;;;12450089;28;20441;-35
2020/12/09 07:14:49;;;;;;;65.90;28.10;;;1.20;99.90;;;;;;12444160;28;20049;-35
2020/12/09 07:20:50;;;;;;;68.20;28.17;;;1.30;99.90;;;;;;12439553;28;20050;-35
2020/12/09 07:26:52;;;;;;;74.40;31.17;;;1.40;99.90;;;;;;12448334;28;20060;-35
2020/12/09 07:32:54;;;;;;;85.13;32.30;;;1.60;99.90;;;;;;12438388;28;20139;-35
2020/12/09 07:38:56;;;;;;;81.38;31.10;;;1.40;99.90;;;;;;12437467;28;20054;-35
2020/12/09 07:44:57;;;;;;;60.17;26.75;;;1.40;99.90;;;;;;12435848;28;20464;-35
2020/12/09 07:50:59;;;;;;;70.28;28.77;;;1.40;99.90;;;;;;12443784;28;20049;-35
2020/12/09 07:57:00;;;;;;;64.20;28.73;;;1.40;99.90;;;;;;12425978;28;20061;-35
2020/12/09 08:03:01;;;;;;;64.45;27.02;;;1.50;99.90;;;;;;12438158;28;20429;-35
2020/12/09 08:09:14;;;;;;;68.43;28.90;;;1.70;99.90;;;;;;12429155;28;20054;-35
2020/12/09 08:15:15;;;;;;;61.63;26.50;;;2.00;99.90;;;;;;12433906;28;20138;-35
2020/12/09 08:21:25;;;;;;;60.65;26.50;;;2.00;99.90;;;;;;12428372;28;20165;-35
2020/12/09 08:27:27;;;;;;;52.25;23.98;;;1.90;99.90;;;;;;12439950;28;20087;-35
2020/12/09 08:33:29;;;;;;;56.75;25.23;;;1.90;99.90;;;;;;12426229;28;20049;-35
2020/12/09 08:39:30;;;;;;;60.75;26.42;;;1.90;99.90;;;;;;12436696;28;20065;-35
2020/12/09 08:45:32;;;;;;;61.42;24.63;;;1.50;99.90;;;;;;12429172;28;20065;-35
2020/12/09 08:51:34;;;;;;;59.80;25.83;;;1.50;99.90;;;;;;12431726;28;20068;-35
2020/12/09 08:57:36;;;;;;;52.60;24.55;;;1.70;99.90;;;;;;12444844;28;20046;-35
2020/12/09 09:03:39;;;;;;;51.33;23.67;;;1.80;99.90;;;;;;12422329;28;20056;-35
2020/12/09 09:09:42;;;;;;;57.60;25.80;;;1.70;99.90;;;;;;12433960;28;20065;-35
2020/12/09 09:15:43;;;;;;;64.30;25.67;;;1.70;99.90;;;;;;12426814;28;20448;-35
2020/12/09 09:21:44;;;;;;;59.50;26.38;;;1.50;99.90;;;;;;12449464;28;20489;-35
2020/12/09 09:27:50;;;;;;;67.60;26.88;;;1.70;99.90;;;;;;12418975;28;20077;-35
2020/12/09 09:33:51;;;;;;;66.13;27.33;;;1.70;99.90;;;;;;12445374;28;20087;-35
2020/12/09 09:39:53;;;;;;;72.53;28.83;;;1.60;99.90;;;;;;12433862;28;20099;-35
2020/12/09 09:45:54;;;;;;;79.35;30.00;;;1.60;99.90;;;;;;12433499;28;20081;-35
2020/12/09 09:51:55;;;;;;;68.55;28.52;;;1.60;99.90;;;;;;12422946;28;20092;-36
2020/12/09 09:57:57;;;;;;;79.68;27.58;;;1.60;99.90;;;;;;12444049;28;20056;-35
2020/12/09 10:03:58;;;;;;;78.38;29.55;;;1.50;99.90;;;;;;12419201;28;20513;-35
2020/12/09 10:10:03;;;;;;;69.35;26.38;;;1.50;99.90;;;;;;12434058;28;20164;-35
2020/12/09 10:16:04;;;;;;;72.60;26.92;;;1.50;99.90;;;;;;12423611;28;20053;-35
2020/12/09 10:22:05;;;;;;;62.33;25.50;;;1.50;99.90;;;;;;12442020;28;20493;-35
2020/12/09 10:28:07;;;;;;;59.83;26.27;;;1.60;99.90;;;;;;12437004;28;20137;-35
2020/12/09 10:34:10;;;;;;;57.83;24.55;;;1.70;99.90;;;;;;12408978;28;20053;-35
2020/12/09 10:40:11;;;;;;;63.45;26.20;;;1.90;99.90;;;;;;12439810;28;20140;-35
2020/12/09 10:46:13;;;;;;;54.20;24.73;;;1.80;99.90;;;;;;12426762;28;20054;-35
2020/12/09 10:52:14;;;;;;;68.05;24.42;;;2.30;99.90;;;;;;12435389;28;20934;-35
2020/12/09 10:58:15;;;;;;;58.35;24.55;;;2.00;99.90;;;;;;12423991;28;20069;-35
2020/12/09 11:04:17;;;;;;;60.53;25.05;;;2.10;99.90;;;;;;12421422;28;20057;-35
2020/12/09 11:10:18;;;;;;;63.65;26.13;;;2.40;99.90;;;;;;12426128;28;20505;-35
2020/12/09 11:16:21;;;;;;;55.70;24.52;;;2.30;99.90;;;;;;12422060;28;20575;-35
2020/12/09 11:22:22;;;;;;;61.97;25.63;;;2.60;99.90;;;;;;12438751;28;20077;-35
2020/12/09 11:28:24;;;;;;;57.65;24.00;;;2.70;99.90;;;;;;12438978;28;20085;-35
2020/12/09 11:34:29;;;;;;;52.67;23.42;;;2.50;99.90;;;;;;12422894;28;20076;-35
2020/12/09 11:40:31;;;;;;;55.03;22.63;;;2.80;99.90;;;;;;12436152;28;20430;-35
2020/12/09 11:46:32;;;;;;;63.45;26.15;;;2.90;99.90;;;;;;12432506;28;20546;-35
2020/12/09 11:52:34;;;;;;;55.33;23.63;;;3.00;99.90;;;;;;12435298;28;20482;-35
2020/12/09 11:58:35;;;;;;;54.05;24.92;;;2.90;99.90;;;;;;12415335;28;20052;-35
2020/12/09 12:04:36;;;;;;;57.95;24.67;;;2.80;99.90;;;;;;12412941;28;20073;-35
2020/12/09 12:10:38;;;;;;;61.75;27.10;;;2.80;99.90;;;;;;12436439;28;20052;-35
2020/12/09 12:16:39;;;;;;;70.50;27.25;;;2.80;99.90;;;;;;12420068;28;20129;-35
2020/12/09 12:22:40;;;;;;;71.85;27.65;;;2.70;99.90;;;;;;12442560;28;20085;-35
2020/12/09 12:28:42;;;;;;;76.22;28.05;;;2.40;99.90;;;;;;12433862;28;20064;-35
2020/12/09 12:34:44;;;;;;;77.28;28.80;;;2.20;99.90;;;;;;12406574;28;20914;-35
2020/12/09 12:40:45;;;;;;;67.65;28.15;;;2.30;99.90;;;;;;12404168;28;20137;-35
2020/12/09 12:46:47;;;;;;;64.03;27.88;;;2.40;99.90;;;;;;12444270;28;20132;-35
2020/12/09 12:52:49;;;;;;;66.38;27.92;;;2.40;99.90;;;;;;12436560;28;20057;-35
2020/12/09 12:58:51;;;;;;;64.05;27.17;;;2.40;99.90;;;;;;12439101;28;20068;-35
2020/12/09 13:04:52;;;;;;;69.35;27.52;;;2.40;99.90;;;;;;12442191;28;20065;-35
2020/12/09 13:10:53;;;;;;;61.47;27.00;;;2.50;99.90;;;;;;12429771;28;20068;-35
2020/12/09 13:16:55;;;;;;;59.38;25.75;;;2.50;99.90;;;;;;12434767;28;20053;-35
2020/12/09 13:22:56;;;;;;;62.92;26.98;;;2.60;99.90;;;;;;12437684;28;20424;-35
2020/12/09 13:28:57;;;;;;;55.25;24.17;;;2.40;99.90;;;;;;12427038;28;20438;-35
2020/12/09 13:34:59;;;;;;;53.90;24.33;;;2.40;99.90;;;;;;12449409;28;20068;-35
2020/12/09 13:41:00;;;;;;;60.35;24.83;;;2.20;99.90;;;;;;12429807;28;20050;-35
2020/12/09 13:47:02;;;;;;;62.58;24.17;;;2.00;99.90;;;;;;12409954;28;20995;-35
2020/12/09 13:53:04;;;;;;;52.22;23.77;;;2.10;99.90;;;;;;12446632;28;20057;-35
2020/12/09 13:59:25;;;;;;;58.80;24.92;;;1.90;99.90;;;;;;12425800;28;20046;-35
2020/12/09 14:05:27;;;;;;;53.60;22.75;;;2.00;99.90;;;;;;12445029;28;20095;-35
2020/12/09 14:11:33;;;;;;;54.88;24.17;;;2.20;99.90;;;;;;12434681;28;20168;-35
2020/12/09 14:17:34;;;;;;;56.67;24.50;;;1.90;99.90;;;;;;12426229;28;20172;-35
2020/12/09 14:23:36;;;;;;;55.05;23.85;;;1.60;99.90;;;;;;12438401;28;20049;-35
2020/12/09 14:29:38;;;;;;;52.33;23.48;;;1.60;99.90;;;;;;12436285;28;20952;-35
2020/12/09 14:35:40;;;;;;;54.83;23.63;;;2.00;99.90;;;;;;12431923;28;20056;-35
2020/12/09 14:41:46;;;;;;;52.30;22.73;;;2.00;99.90;;;;;;12452692;28;20423;-35
2020/12/09 14:47:48;;;;;;;55.35;24.58;;;1.80;99.90;;;;;;12440963;28;20049;-35
2020/12/09 14:53:54;;;;;;;51.47;22.23;;;2.10;99.90;;;;;;12451738;28;20452;-35
2020/12/09 14:59:55;;;;;;;54.60;24.48;;;1.90;99.90;;;;;;12446140;28;20489;-35
2020/12/09 15:05:58;;;;;;;47.22;23.02;;;1.90;99.90;;;;;;12454644;28;20076;-35
2020/12/09 15:12:00;;;;;;;51.92;22.13;;;2.10;99.90;;;;;;12446160;28;20060;-35
2020/12/09 15:18:02;;;;;;;60.92;24.80;;;1.90;99.90;;;;;;12444907;28;20052;-35
2020/12/09 15:24:03;;;;;;;59.15;24.33;;;1.60;99.90;;;;;;12443203;28;20620;-35
2020/12/09 15:30:05;;;;;;;59.80;24.50;;;1.50;99.90;;;;;;12444670;28;20073;-35
2020/12/09 15:36:07;;;;;;;60.92;24.30;;;1.40;99.90;;;;;;12445979;28;20809;-35
2020/12/09 15:42:12;;;;;;;54.25;22.83;;;1.40;99.90;;;;;;12448166;28;20049;-35
2020/12/09 15:48:13;;;;;;;56.38;23.67;;;1.50;99.90;;;;;;12438267;28;20046;-35
2020/12/09 15:54:14;;;;;;;55.03;23.90;;;1.60;99.90;;;;;;12452759;28;20092;-35
2020/12/09 16:00:16;;;;;;;53.08;23.85;;;1.50;99.90;;;;;;12440513;28;20450;-35
2020/12/09 16:06:17;;;;;;;55.90;24.45;;;1.50;99.90;;;;;;12444894;28;20080;-35
2020/12/09 16:12:19;;;;;;;59.45;25.70;;;1.50;99.90;;;;;;12443556;28;20084;-35
2020/12/09 16:18:21;;;;;;;53.50;23.75;;;1.60;99.90;;;;;;12435310;28;20482;-35
2020/12/09 16:24:22;;;;;;;56.03;24.80;;;1.50;99.90;;;;;;12425697;28;20401;-35
2020/12/09 16:30:23;;;;;;;53.78;23.17;;;1.50;99.90;;;;;;12418848;28;20068;-35
2020/12/09 16:36:25;;;;;;;55.38;24.15;;;1.70;99.90;;;;;;12423284;28;20052;-35
2020/12/09 16:42:31;;;;;;;58.83;25.80;;;1.70;99.90;;;;;;12433525;28;20536;-35
2020/12/09 16:48:32;;;;;;;52.55;24.80;;;1.80;99.90;;;;;;12431218;28;20041;-35
2020/12/09 16:54:33;;;;;;;60.42;26.30;;;2.00;99.90;;;;;;12421267;28;20069;-35
2020/12/09 17:00:35;;;;;;;64.20;27.55;;;1.70;99.90;;;;;;12429828;28;20050;-35
2020/12/09 17:06:37;;;;;;;68.05;28.98;;;1.60;99.90;;;;;;12429256;28;20570;-35
2020/12/09 17:12:39;;;;;;;71.43;31.02;;;1.60;99.90;;;;;;12442278;28;20060;-35
2020/12/09 17:18:40;;;;;;;73.28;29.00;;;1.60;99.90;;;;;;12423991;28;20041;-35
2020/12/09 17:24:42;;;;;;;70.95;30.58;;;1.60;99.90;;;;;;12443960;28;20037;-35
2020/12/09 17:30:44;;;;;;;72.80;31.13;;;1.70;99.90;;;;;;12425718;28;20128;-35
2020/12/09 17:36:45;;;;;;;76.15;31.98;;;1.70;99.90;;;;;;12408501;28;20050;-35
2020/12/09 17:42:47;;;;;;;67.88;30.33;;;1.80;99.90;;;;;;12428622;28;20136;-35
2020/12/09 17:48:48;;;;;;;72.18;30.60;;;1.70;99.90;;;;;;12436478;28;20066;-35
2020/12/09 17:54:50;;;;;;;76.80;31.73;;;1.60;99.90;;;;;;12431129;28;20053;-35
2020/12/09 18:01:02;;;;;;;85.70;32.53;;;1.50;99.90;;;;;;12429358;28;20108;-35
2020/12/09 18:07:03;;;;;;;86.55;32.30;;;1.50;99.90;;;;;;12421493;28;20434;-35
2020/12/09 18:13:05;;;;;;;89.47;34.33;;;1.50;99.90;;;;;;12429413;28;20541;-35
2020/12/09 18:19:06;;;;;;;108.90;48.17;;;1.50;99.90;;;;;;12444262;28;20068;-35
2020/12/09 18:25:08;;;;;;;87.75;34.22;;;1.50;99.90;;;;;;12429927;28;20136;-35
2020/12/09 18:31:13;;;;;;;86.90;32.65;;;1.60;99.90;;;;;;12440640;28;20061;-35
2020/12/09 18:37:14;;;;;;;87.30;31.38;;;1.50;99.90;;;;;;12460883;28;20057;-35
2020/12/09 18:43:16;;;;;;;89.70;33.40;;;1.50;99.90;;;;;;12417255;28;20096;-35
2020/12/09 18:49:17;;;;;;;84.97;32.25;;;1.50;99.90;;;;;;12422259;28;20069;-35
2020/12/09 18:55:18;;;;;;;90.15;33.83;;;1.50;99.90;;;;;;12441069;28;20728;-35
2020/12/09 19:01:20;;;;;;;94.57;33.78;;;1.50;99.90;;;;;;12442549;28;20159;-35
2020/12/09 19:07:21;;;;;;;89.50;31.80;;;1.50;99.90;;;;;;12433466;28;20041;-35
2020/12/09 19:13:23;;;;;;;85.97;31.83;;;1.50;99.90;;;;;;12430998;28;20129;-35
2020/12/09 19:19:24;;;;;;;87.55;32.20;;;1.40;99.90;;;;;;12445809;28;20076;-35
2020/12/09 19:25:26;;;;;;;85.45;30.65;;;1.50;99.90;;;;;;12439191;28;20169;-35
2020/12/09 19:31:32;;;;;;;83.90;31.52;;;1.50;99.90;;;;;;12434553;28;20081;-35
2020/12/09 19:37:34;;;;;;;80.80;31.83;;;1.50;99.90;;;;;;12423180;28;20060;-35
2020/12/09 19:43:36;;;;;;;78.00;29.52;;;1.50;99.90;;;;;;12443592;28;20061;-35
2020/12/09 19:49:37;;;;;;;78.35;30.33;;;1.60;99.90;;;;;;12437033;28;20496;-35
2020/12/09 19:55:40;;;;;;;79.13;30.48;;;1.60;99.90;;;;;;12443004;28;20045;-35
2020/12/09 20:01:42;;;;;;;80.22;30.90;;;1.60;99.90;;;;;;12433960;28;20144;-35
2020/12/09 20:07:44;;;;;;;76.22;30.23;;;1.60;99.90;;;;;;12422718;28;20049;-35
2020/12/09 20:13:46;;;;;;;81.55;29.95;;;1.60;99.90;;;;;;12442322;28;20052;-35
2020/12/09 20:19:47;;;;;;;76.13;28.50;;;1.60;99.90;;;;;;12407612;28;20041;-35
2020/12/09 20:25:49;;;;;;;79.25;29.38;;;1.60;99.90;;;;;;12436795;28;20049;-35
2020/12/09 20:31:50;;;;;;;80.97;31.50;;;1.60;99.90;;;;;;12443016;28;20080;-35
2020/12/09 20:37:52;;;;;;;79.72;32.63;;;1.70;99.90;;;;;;12424450;28;20103;-35
2020/12/09 20:43:53;;;;;;;85.30;31.65;;;1.70;99.90;;;;;;12422069;28;20065;-35
2020/12/09 20:49:55;;;;;;;76.88;30.70;;;1.70;99.90;;;;;;12445149;28;20060;-33
2020/12/09 20:55:56;;;;;;;79.32;31.05;;;1.80;99.90;;;;;;12429496;28;20046;-33
2020/12/09 21:01:57;;;;;;;78.05;31.65;;;1.80;99.90;;;;;;12422604;28;20501;-33
2020/12/09 21:07:59;;;;;;;81.75;30.98;;;1.70;99.90;;;;;;12412390;28;20126;-33
2020/12/09 21:14:00;;;;;;;74.97;30.00;;;1.70;99.90;;;;;;12427355;28;20049;-33
2020/12/09 21:20:02;;;;;;;74.60;31.63;;;1.70;99.90;;;;;;12440999;28;20056;-33
2020/12/09 21:26:03;;;;;;;75.03;30.73;;;1.70;99.90;;;;;;12436355;28;20093;-33
2020/12/09 21:32:05;;;;;;;84.05;31.83;;;1.70;99.90;;;;;;12416416;28;20053;-33
2020/12/09 21:38:08;;;;;;;82.30;31.17;;;1.70;99.90;;;;;;12424179;28;20053;-33
2020/12/09 21:44:10;;;;;;;72.80;29.25;;;1.70;99.90;;;;;;12431914;28;20073;-33
2020/12/09 21:50:11;;;;;;;78.32;29.95;;;1.70;99.90;;;;;;12444678;28;20081;-33
2020/12/09 21:56:12;;;;;;;80.18;32.05;;;1.70;99.90;;;;;;12427913;28;20472;-33
2020/12/09 22:02:14;;;;;;;80.95;31.30;;;1.70;99.90;;;;;;12428535;28;20053;-33
2020/12/09 22:08:15;;;;;;;79.10;31.02;;;1.80;99.90;;;;;;12420096;28;20095;-33
2020/12/09 22:14:17;;;;;;;81.70;32.60;;;1.70;99.90;;;;;;12434416;28;20041;-33
2020/12/09 22:20:18;;;;;;;78.45;31.92;;;1.70;99.90;;;;;;12438669;28;20050;-33
2020/12/09 22:26:19;;;;;;;74.22;30.85;;;1.70;99.90;;;;;;12454032;28;20069;-33
2020/12/09 22:32:21;;;;;;;78.30;30.67;;;1.70;99.90;;;;;;12434113;28;20054;-33
2020/12/09 22:38:22;;;;;;;84.07;32.47;;;1.70;99.90;;;;;;12448713;28;20041;-33
2020/12/09 22:44:23;;;;;;;87.00;33.40;;;1.70;99.90;;;;;;12430553;28;20081;-33
2020/12/09 22:50:25;;;;;;;87.50;33.45;;;1.70;99.90;;;;;;12456943;28;20049;-33
2020/12/09 22:56:26;;;;;;;82.85;32.17;;;1.70;99.90;;;;;;12447482;28;20145;-33
2020/12/09 23:02:27;;;;;;;86.30;32.50;;;1.70;99.90;;;;;;12442994;28;20111;-33
2020/12/09 23:08:29;;;;;;;83.45;32.58;;;1.70;99.90;;;;;;12456267;28;20081;-33
2020/12/09 23:14:31;;;;;;;88.07;32.92;;;1.70;99.90;;;;;;12452901;28;20512;-33
2020/12/09 23:20:33;;;;;;;88.72;32.45;;;1.70;99.90;;;;;;12428332;28;20141;-33
2020/12/09 23:26:36;;;;;;;80.78;31.48;;;1.70;99.90;;;;;;12460379;28;20061;-33
2020/12/09 23:32:37;;;;;;;92.53;33.33;;;1.70;99.90;;;;;;12446453;28;20110;-33
2020/12/09 23:38:38;;;;;;;83.07;31.85;;;1.70;99.90;;;;;;12442363;28;20108;-33
2020/12/09 23:44:40;;;;;;;94.70;34.35;;;1.60;99.90;;;;;;12429268;28;20049;-33
2020/12/09 23:50:41;;;;;;;92.70;33.85;;;1.60;99.90;;;;;;12449501;28;20056;-33
2020/12/09 23:56:43;;;;;;;90.38;33.65;;;1.60;99.90;;;;;;12432464;28;20049;-33
